sensor_id;sensor_type;location;lat;lon;timestamp;pressure;altitude;pressure_sealevel;temperature;humidity
49459;BME280;35354;51.296;16.924;2023-06-04T00:00:59;100058.84;;;12.84;55.07
49459;BME280;35354;51.296;16.924;2023-06-04T00:03:25;100080.31;;;12.91;55.19
49459;BME280;35354;51.296;16.924;2023-06-04T00:05:50;100068.47;;;12.84;55.13
49459;BME280;35354;51.296;16.924;2023-06-04T00:08:15;100082.22;;;12.87;54.96
49459;BME280;35354;51.296;16.924;2023-06-04T00:10:41;100060.84;;;12.79;55.17
49459;BME280;35354;51.296;16.924;2023-06-04T00:13:06;100079.47;;;12.90;55.25
49459;BME280;35354;51.296;16.924;2023-06-04T00:15:32;100084.84;;;12.87;55.11
49459;BME280;35354;51.296;16.924;2023-06-04T00:17:57;100073.28;;;12.74;55.14
49459;BME280;35354;51.296;16.924;2023-06-04T00:20:22;100074.47;;;12.86;55.21
49459;BME280;35354;51.296;16.924;2023-06-04T00:22:48;100055.28;;;12.68;55.22
49459;BME280;35354;51.296;16.924;2023-06-04T00:25:13;100036.31;;;12.64;55.01
49459;BME280;35354;51.296;16.924;2023-06-04T00:27:38;100050.84;;;12.70;55.38
49459;BME280;35354;51.296;16.924;2023-06-04T00:30:04;100072.44;;;12.73;55.39
49459;BME280;35354;51.296;16.924;2023-06-04T00:32:30;100045.00;;;12.65;55.47
49459;BME280;35354;51.296;16.924;2023-06-04T00:34:56;100070.59;;;12.76;55.50
49459;BME280;35354;51.296;16.924;2023-06-04T00:37:23;100049.66;;;12.58;55.57
49459;BME280;35354;51.296;16.924;2023-06-04T00:39:49;100047.13;;;12.57;55.68
49459;BME280;35354;51.296;16.924;2023-06-04T00:42:15;100047.28;;;12.54;55.90
49459;BME280;35354;51.296;16.924;2023-06-04T00:44:40;100038.81;;;12.48;55.74
49459;BME280;35354;51.296;16.924;2023-06-04T00:47:14;100071.19;;;12.63;55.93
49459;BME280;35354;51.296;16.924;2023-06-04T00:49:40;100051.94;;;12.47;56.01
49459;BME280;35354;51.296;16.924;2023-06-04T00:52:10;100072.25;;;12.59;56.18
49459;BME280;35354;51.296;16.924;2023-06-04T00:54:36;100048.56;;;12.45;56.07
49459;BME280;35354;51.296;16.924;2023-06-04T00:57:04;100035.66;;;12.42;56.29
49459;BME280;35354;51.296;16.924;2023-06-04T00:59:31;100038.88;;;12.47;56.39
49459;BME280;35354;51.296;16.924;2023-06-04T01:02:09;100037.13;;;12.47;56.49
49459;BME280;35354;51.296;16.924;2023-06-04T01:07:27;100058.56;;;12.54;56.89
49459;BME280;35354;51.296;16.924;2023-06-04T01:09:53;100017.66;;;12.36;56.77
49459;BME280;35354;51.296;16.924;2023-06-04T01:12:19;100037.81;;;12.51;56.89
49459;BME280;35354;51.296;16.924;2023-06-04T01:14:45;100064.41;;;12.59;57.23
49459;BME280;35354;51.296;16.924;2023-06-04T01:17:17;100067.13;;;12.58;57.08
49459;BME280;35354;51.296;16.924;2023-06-04T01:20:01;100060.91;;;12.60;57.14
49459;BME280;35354;51.296;16.924;2023-06-04T01:25:30;100063.03;;;12.52;57.30
49459;BME280;35354;51.296;16.924;2023-06-04T01:27:57;100056.81;;;12.55;57.44
49459;BME280;35354;51.296;16.924;2023-06-04T01:30:25;100056.66;;;12.58;57.58
49459;BME280;35354;51.296;16.924;2023-06-04T01:32:51;100055.25;;;12.51;57.56
49459;BME280;35354;51.296;16.924;2023-06-04T01:35:17;100038.44;;;12.39;57.68
49459;BME280;35354;51.296;16.924;2023-06-04T01:37:42;100025.38;;;12.20;57.82
49459;BME280;35354;51.296;16.924;2023-06-04T01:40:08;100025.78;;;12.30;57.89
49459;BME280;35354;51.296;16.924;2023-06-04T01:42:34;100039.00;;;12.27;58.20
49459;BME280;35354;51.296;16.924;2023-06-04T01:45:00;100052.59;;;12.33;58.22
49459;BME280;35354;51.296;16.924;2023-06-04T01:47:25;100062.06;;;12.36;58.22
49459;BME280;35354;51.296;16.924;2023-06-04T01:49:51;100056.84;;;12.36;58.61
49459;BME280;35354;51.296;16.924;2023-06-04T01:52:16;100022.41;;;12.09;58.35
49459;BME280;35354;51.296;16.924;2023-06-04T01:54:41;100051.41;;;12.21;58.67
49459;BME280;35354;51.296;16.924;2023-06-04T01:57:08;100036.47;;;12.06;58.52
49459;BME280;35354;51.296;16.924;2023-06-04T01:59:35;100044.09;;;12.11;58.68
49459;BME280;35354;51.296;16.924;2023-06-04T02:02:01;100067.28;;;12.17;58.93
49459;BME280;35354;51.296;16.924;2023-06-04T02:04:27;100036.03;;;11.96;58.93
49459;BME280;35354;51.296;16.924;2023-06-04T02:06:52;100068.22;;;12.16;58.93
49459;BME280;35354;51.296;16.924;2023-06-04T02:09:18;100063.13;;;12.13;59.16
49459;BME280;35354;51.296;16.924;2023-06-04T02:11:43;100058.34;;;12.04;59.30
49459;BME280;35354;51.296;16.924;2023-06-04T02:14:08;100039.66;;;11.94;59.27
49459;BME280;35354;51.296;16.924;2023-06-04T02:16:34;100036.41;;;11.89;59.26
49459;BME280;35354;51.296;16.924;2023-06-04T02:18:59;100045.34;;;11.83;59.64
49459;BME280;35354;51.296;16.924;2023-06-04T02:21:25;100031.22;;;11.68;59.66
49459;BME280;35354;51.296;16.924;2023-06-04T02:23:51;100068.38;;;11.94;59.79
49459;BME280;35354;51.296;16.924;2023-06-04T02:26:16;100065.25;;;11.86;60.21
49459;BME280;35354;51.296;16.924;2023-06-04T02:28:41;100043.25;;;11.71;59.97
49459;BME280;35354;51.296;16.924;2023-06-04T02:31:07;100077.38;;;11.87;60.12
49459;BME280;35354;51.296;16.924;2023-06-04T02:33:32;100055.63;;;11.67;60.35
49459;BME280;35354;51.296;16.924;2023-06-04T02:35:57;100076.84;;;11.79;60.39
49459;BME280;35354;51.296;16.924;2023-06-04T02:38:23;100034.44;;;11.55;60.32
49459;BME280;35354;51.296;16.924;2023-06-04T02:40:48;100067.78;;;11.67;60.36
49459;BME280;35354;51.296;16.924;2023-06-04T02:43:13;100051.91;;;11.53;60.44
49459;BME280;35354;51.296;16.924;2023-06-04T02:45:39;100074.94;;;11.63;60.83
49459;BME280;35354;51.296;16.924;2023-06-04T02:48:04;100052.88;;;11.50;60.89
49459;BME280;35354;51.296;16.924;2023-06-04T02:50:29;100053.25;;;11.42;60.92
49459;BME280;35354;51.296;16.924;2023-06-04T02:52:55;100046.31;;;11.41;61.02
49459;BME280;35354;51.296;16.924;2023-06-04T02:55:20;100053.03;;;11.47;61.41
49459;BME280;35354;51.296;16.924;2023-06-04T02:57:46;100080.19;;;11.62;61.35
49459;BME280;35354;51.296;16.924;2023-06-04T03:00:13;100052.00;;;11.51;61.33
49459;BME280;35354;51.296;16.924;2023-06-04T03:02:44;100041.03;;;11.43;61.43
49459;BME280;35354;51.296;16.924;2023-06-04T03:05:13;100055.66;;;11.47;61.44
49459;BME280;35354;51.296;16.924;2023-06-04T03:07:40;100060.72;;;11.50;61.68
49459;BME280;35354;51.296;16.924;2023-06-04T03:10:07;100072.19;;;11.46;61.76
49459;BME280;35354;51.296;16.924;2023-06-04T03:12:33;100055.38;;;11.33;61.73
49459;BME280;35354;51.296;16.924;2023-06-04T03:14:58;100067.34;;;11.38;61.89
49459;BME280;35354;51.296;16.924;2023-06-04T03:17:23;100082.47;;;11.51;61.67
49459;BME280;35354;51.296;16.924;2023-06-04T03:19:49;100056.94;;;11.37;61.89
49459;BME280;35354;51.296;16.924;2023-06-04T03:22:14;100056.91;;;11.38;62.01
49459;BME280;35354;51.296;16.924;2023-06-04T03:24:40;100077.56;;;11.43;62.00
49459;BME280;35354;51.296;16.924;2023-06-04T03:27:07;100069.75;;;11.43;62.35
49459;BME280;35354;51.296;16.924;2023-06-04T03:29:33;100085.06;;;11.51;62.17
49459;BME280;35354;51.296;16.924;2023-06-04T03:32:00;100007.06;;;11.05;62.20
49459;BME280;35354;51.296;16.924;2023-06-04T03:34:25;100080.72;;;11.49;62.44
49459;BME280;35354;51.296;16.924;2023-06-04T03:36:52;100087.59;;;11.52;62.15
49459;BME280;35354;51.296;16.924;2023-06-04T03:39:17;100079.69;;;11.54;62.34
49459;BME280;35354;51.296;16.924;2023-06-04T03:41:43;100088.81;;;11.64;62.31
49459;BME280;35354;51.296;16.924;2023-06-04T03:44:08;100073.63;;;11.53;62.39
49459;BME280;35354;51.296;16.924;2023-06-04T03:46:33;100068.91;;;11.61;62.40
49459;BME280;35354;51.296;16.924;2023-06-04T03:48:59;100094.47;;;11.73;62.43
49459;BME280;35354;51.296;16.924;2023-06-04T03:51:24;100077.34;;;11.68;62.63
49459;BME280;35354;51.296;16.924;2023-06-04T03:53:50;100073.53;;;11.75;62.51
49459;BME280;35354;51.296;16.924;2023-06-04T03:56:16;100098.09;;;12.10;62.07
49459;BME280;35354;51.296;16.924;2023-06-04T03:58:41;100099.75;;;12.30;61.60
49459;BME280;35354;51.296;16.924;2023-06-04T04:01:06;100076.41;;;12.27;61.12
49459;BME280;35354;51.296;16.924;2023-06-04T04:03:33;100103.66;;;12.40;61.10
49459;BME280;35354;51.296;16.924;2023-06-04T04:06:00;100086.34;;;12.38;61.26
49459;BME280;35354;51.296;16.924;2023-06-04T04:08:25;100092.41;;;12.57;60.88
49459;BME280;35354;51.296;16.924;2023-06-04T04:10:55;100088.31;;;13.05;60.47
49459;BME280;35354;51.296;16.924;2023-06-04T04:13:20;100107.94;;;13.99;58.16
49459;BME280;35354;51.296;16.924;2023-06-04T04:15:46;100097.97;;;15.15;55.61
49459;BME280;35354;51.296;16.924;2023-06-04T04:18:11;100094.69;;;16.95;52.13
49459;BME280;35354;51.296;16.924;2023-06-04T04:20:36;100088.03;;;18.43;49.19
49459;BME280;35354;51.296;16.924;2023-06-04T04:23:01;100087.41;;;19.11;47.43
49459;BME280;35354;51.296;16.924;2023-06-04T04:25:27;100085.81;;;18.98;47.61
49459;BME280;35354;51.296;16.924;2023-06-04T04:27:52;100067.16;;;18.40;48.95
49459;BME280;35354;51.296;16.924;2023-06-04T04:30:21;100084.72;;;18.15;49.34
49459;BME280;35354;51.296;16.924;2023-06-04T04:32:47;100072.97;;;17.95;49.81
49459;BME280;35354;51.296;16.924;2023-06-04T04:35:16;100071.50;;;18.04;49.54
49459;BME280;35354;51.296;16.924;2023-06-04T04:37:44;100084.47;;;18.68;48.77
49459;BME280;35354;51.296;16.924;2023-06-04T04:40:10;100078.19;;;19.75;47.10
49459;BME280;35354;51.296;16.924;2023-06-04T04:42:36;100076.25;;;21.29;43.73
49459;BME280;35354;51.296;16.924;2023-06-04T04:45:02;100097.56;;;22.00;42.98
49459;BME280;35354;51.296;16.924;2023-06-04T04:47:27;100078.31;;;22.08;42.77
49459;BME280;35354;51.296;16.924;2023-06-04T04:49:52;100097.75;;;21.57;43.56
49459;BME280;35354;51.296;16.924;2023-06-04T04:52:18;100103.16;;;20.92;44.59
49459;BME280;35354;51.296;16.924;2023-06-04T04:54:43;100086.44;;;20.37;44.81
49459;BME280;35354;51.296;16.924;2023-06-04T04:57:09;100090.44;;;20.21;45.73
49459;BME280;35354;51.296;16.924;2023-06-04T04:59:34;100092.09;;;20.44;45.20
49459;BME280;35354;51.296;16.924;2023-06-04T05:01:59;100086.38;;;21.03;44.14
49459;BME280;35354;51.296;16.924;2023-06-04T05:04:25;100093.06;;;22.22;42.72
49459;BME280;35354;51.296;16.924;2023-06-04T05:06:50;100093.25;;;23.46;41.28
49459;BME280;35354;51.296;16.924;2023-06-04T05:09:15;100118.53;;;24.17;40.63
49459;BME280;35354;51.296;16.924;2023-06-04T05:11:41;100120.09;;;23.72;40.43
49459;BME280;35354;51.296;16.924;2023-06-04T05:14:06;100096.97;;;22.27;41.71
49459;BME280;35354;51.296;16.924;2023-06-04T05:16:32;100115.63;;;21.85;42.98
49459;BME280;35354;51.296;16.924;2023-06-04T05:19:00;100097.44;;;21.71;43.29
49459;BME280;35354;51.296;16.924;2023-06-04T05:21:27;100110.59;;;21.82;42.80
49459;BME280;35354;51.296;16.924;2023-06-04T05:23:54;100098.06;;;22.25;42.76
49459;BME280;35354;51.296;16.924;2023-06-04T05:26:20;100100.97;;;23.49;40.81
49459;BME280;35354;51.296;16.924;2023-06-04T05:28:48;100103.00;;;24.85;39.27
49459;BME280;35354;51.296;16.924;2023-06-04T05:31:14;100110.09;;;25.12;39.11
49459;BME280;35354;51.296;16.924;2023-06-04T05:33:41;100102.53;;;24.54;39.28
49459;BME280;35354;51.296;16.924;2023-06-04T05:36:06;100117.88;;;23.77;39.79
49459;BME280;35354;51.296;16.924;2023-06-04T05:38:32;100108.81;;;23.41;40.38
49459;BME280;35354;51.296;16.924;2023-06-04T05:40:58;100121.38;;;23.58;40.79
49459;BME280;35354;51.296;16.924;2023-06-04T05:43:23;100123.28;;;23.85;40.14
49459;BME280;35354;51.296;16.924;2023-06-04T05:45:48;100103.63;;;23.96;39.38
49459;BME280;35354;51.296;16.924;2023-06-04T05:48:14;100116.81;;;25.16;38.74
49459;BME280;35354;51.296;16.924;2023-06-04T05:50:40;100114.69;;;25.98;38.05
49459;BME280;35354;51.296;16.924;2023-06-04T05:53:05;100105.50;;;25.92;37.75
49459;BME280;35354;51.296;16.924;2023-06-04T05:55:31;100093.50;;;25.44;38.51
49459;BME280;35354;51.296;16.924;2023-06-04T05:57:56;100110.94;;;25.12;38.21
49459;BME280;35354;51.296;16.924;2023-06-04T06:00:22;100124.38;;;24.93;37.93
49459;BME280;35354;51.296;16.924;2023-06-04T06:02:49;100114.63;;;25.02;38.42
49459;BME280;35354;51.296;16.924;2023-06-04T06:05:15;100116.38;;;25.73;38.19
49459;BME280;35354;51.296;16.924;2023-06-04T06:07:41;100115.34;;;26.84;36.68
49459;BME280;35354;51.296;16.924;2023-06-04T06:10:07;100102.84;;;28.06;35.37
49459;BME280;35354;51.296;16.924;2023-06-04T06:12:32;100115.75;;;29.04;33.95
49459;BME280;35354;51.296;16.924;2023-06-04T06:14:58;100125.88;;;29.69;33.45
49459;BME280;35354;51.296;16.924;2023-06-04T06:17:23;100109.88;;;30.05;33.30
49459;BME280;35354;51.296;16.924;2023-06-04T06:19:49;100118.09;;;30.04;33.58
49459;BME280;35354;51.296;16.924;2023-06-04T06:22:14;100120.16;;;29.72;33.81
49459;BME280;35354;51.296;16.924;2023-06-04T06:24:40;100115.72;;;30.09;33.21
49459;BME280;35354;51.296;16.924;2023-06-04T06:27:06;100131.34;;;31.29;32.67
49459;BME280;35354;51.296;16.924;2023-06-04T06:29:32;100133.44;;;32.24;31.41
49459;BME280;35354;51.296;16.924;2023-06-04T06:31:58;100115.19;;;32.88;30.62
49459;BME280;35354;51.296;16.924;2023-06-04T06:34:24;100120.53;;;34.00;30.02
49459;BME280;35354;51.296;16.924;2023-06-04T06:36:50;100135.16;;;34.44;29.66
49459;BME280;35354;51.296;16.924;2023-06-04T06:39:15;100132.47;;;34.76;29.27
49459;BME280;35354;51.296;16.924;2023-06-04T06:41:41;100130.75;;;35.45;28.71
49459;BME280;35354;51.296;16.924;2023-06-04T06:44:06;100123.84;;;36.11;28.32
49459;BME280;35354;51.296;16.924;2023-06-04T06:46:32;100142.59;;;36.91;27.97
49459;BME280;35354;51.296;16.924;2023-06-04T06:48:57;100143.09;;;37.41;27.54
49459;BME280;35354;51.296;16.924;2023-06-04T06:51:23;100138.22;;;38.14;26.82
49459;BME280;35354;51.296;16.924;2023-06-04T06:53:51;100139.47;;;38.35;26.96
49459;BME280;35354;51.296;16.924;2023-06-04T06:56:17;100145.13;;;37.93;27.38
49459;BME280;35354;51.296;16.924;2023-06-04T06:58:44;100145.31;;;38.84;26.88
49459;BME280;35354;51.296;16.924;2023-06-04T07:01:09;100151.22;;;39.43;26.13
49459;BME280;35354;51.296;16.924;2023-06-04T07:03:35;100140.97;;;39.33;25.82
49459;BME280;35354;51.296;16.924;2023-06-04T07:06:01;100147.94;;;38.79;26.30
49459;BME280;35354;51.296;16.924;2023-06-04T07:08:26;100147.41;;;39.27;25.92
49459;BME280;35354;51.296;16.924;2023-06-04T07:10:53;100153.16;;;39.81;25.34
49459;BME280;35354;51.296;16.924;2023-06-04T07:13:18;100133.75;;;40.44;25.72
49459;BME280;35354;51.296;16.924;2023-06-04T07:15:44;100138.84;;;40.84;24.64
49459;BME280;35354;51.296;16.924;2023-06-04T07:18:09;100129.91;;;40.94;24.74
49459;BME280;35354;51.296;16.924;2023-06-04T07:20:35;100137.59;;;41.34;24.15
49459;BME280;35354;51.296;16.924;2023-06-04T07:23:00;100138.53;;;41.45;24.45
49459;BME280;35354;51.296;16.924;2023-06-04T07:25:25;100123.88;;;41.61;24.78
49459;BME280;35354;51.296;16.924;2023-06-04T07:27:51;100143.22;;;41.97;24.43
49459;BME280;35354;51.296;16.924;2023-06-04T07:30:16;100137.66;;;42.39;24.18
49459;BME280;35354;51.296;16.924;2023-06-04T07:32:46;100143.88;;;42.19;24.04
49459;BME280;35354;51.296;16.924;2023-06-04T07:35:12;100137.22;;;41.95;24.37
49459;BME280;35354;51.296;16.924;2023-06-04T07:37:37;100156.28;;;40.83;24.06
49459;BME280;35354;51.296;16.924;2023-06-04T07:40:03;100156.34;;;40.88;23.96
49459;BME280;35354;51.296;16.924;2023-06-04T07:42:29;100141.63;;;40.40;24.47
49459;BME280;35354;51.296;16.924;2023-06-04T07:44:54;100155.03;;;39.25;24.75
49459;BME280;35354;51.296;16.924;2023-06-04T07:47:20;100133.88;;;39.15;24.70
49459;BME280;35354;51.296;16.924;2023-06-04T07:49:45;100143.31;;;38.79;24.35
49459;BME280;35354;51.296;16.924;2023-06-04T07:52:11;100142.78;;;38.94;24.32
49459;BME280;35354;51.296;16.924;2023-06-04T07:54:37;100144.19;;;39.47;24.09
49459;BME280;35354;51.296;16.924;2023-06-04T07:57:02;100117.44;;;38.65;24.80
49459;BME280;35354;51.296;16.924;2023-06-04T07:59:27;100128.66;;;39.14;25.05
49459;BME280;35354;51.296;16.924;2023-06-04T08:01:54;100142.09;;;38.58;25.23
49459;BME280;35354;51.296;16.924;2023-06-04T08:04:19;100140.69;;;38.15;25.38
49459;BME280;35354;51.296;16.924;2023-06-04T08:06:45;100131.41;;;36.87;25.28
49459;BME280;35354;51.296;16.924;2023-06-04T08:09:11;100131.19;;;36.40;26.31
49459;BME280;35354;51.296;16.924;2023-06-04T08:11:38;100113.28;;;34.84;26.57
49459;BME280;35354;51.296;16.924;2023-06-04T08:14:04;100124.72;;;32.84;27.90
49459;BME280;35354;51.296;16.924;2023-06-04T08:16:31;100135.25;;;30.69;27.92
49459;BME280;35354;51.296;16.924;2023-06-04T08:18:57;100111.56;;;29.01;30.23
49459;BME280;35354;51.296;16.924;2023-06-04T08:21:26;100111.34;;;28.18;31.15
49459;BME280;35354;51.296;16.924;2023-06-04T08:23:52;100114.81;;;27.79;31.79
49459;BME280;35354;51.296;16.924;2023-06-04T08:26:18;100113.69;;;27.32;31.96
49459;BME280;35354;51.296;16.924;2023-06-04T08:28:44;100109.16;;;26.76;32.76
49459;BME280;35354;51.296;16.924;2023-06-04T08:31:10;100120.66;;;26.26;33.16
49459;BME280;35354;51.296;16.924;2023-06-04T08:33:35;100125.75;;;25.77;33.45
49459;BME280;35354;51.296;16.924;2023-06-04T08:36:01;100120.94;;;25.36;33.89
49459;BME280;35354;51.296;16.924;2023-06-04T08:38:26;100111.84;;;25.03;34.12
49459;BME280;35354;51.296;16.924;2023-06-04T08:40:52;100127.22;;;25.27;34.55
49459;BME280;35354;51.296;16.924;2023-06-04T08:43:19;100120.56;;;25.31;34.73
49459;BME280;35354;51.296;16.924;2023-06-04T08:45:49;100108.88;;;25.24;34.08
49459;BME280;35354;51.296;16.924;2023-06-04T08:48:14;100112.16;;;25.18;34.59
49459;BME280;35354;51.296;16.924;2023-06-04T08:50:42;100109.31;;;24.84;34.66
49459;BME280;35354;51.296;16.924;2023-06-04T08:53:11;100117.59;;;24.63;35.08
49459;BME280;35354;51.296;16.924;2023-06-04T08:55:39;100133.13;;;24.68;35.87
49459;BME280;35354;51.296;16.924;2023-06-04T08:58:05;100137.97;;;24.54;35.57
49459;BME280;35354;51.296;16.924;2023-06-04T09:00:33;100141.41;;;24.64;36.43
49459;BME280;35354;51.296;16.924;2023-06-04T09:03:01;100131.00;;;24.53;36.53
49459;BME280;35354;51.296;16.924;2023-06-04T09:05:27;100147.97;;;24.15;36.17
49459;BME280;35354;51.296;16.924;2023-06-04T09:07:53;100153.63;;;23.93;36.81
49459;BME280;35354;51.296;16.924;2023-06-04T09:10:24;100122.34;;;23.57;37.44
49459;BME280;35354;51.296;16.924;2023-06-04T09:12:51;100127.16;;;23.34;37.75
49459;BME280;35354;51.296;16.924;2023-06-04T09:15:17;100139.59;;;23.05;37.78
49459;BME280;35354;51.296;16.924;2023-06-04T09:17:42;100145.75;;;22.96;38.17
49459;BME280;35354;51.296;16.924;2023-06-04T09:20:08;100125.34;;;23.06;39.90
49459;BME280;35354;51.296;16.924;2023-06-04T09:22:43;100141.94;;;23.47;41.59
49459;BME280;35354;51.296;16.924;2023-06-04T09:25:22;100107.22;;;23.58;40.94
49459;BME280;35354;51.296;16.924;2023-06-04T09:27:48;100133.84;;;24.05;39.10
49459;BME280;35354;51.296;16.924;2023-06-04T09:30:14;100131.78;;;23.99;37.80
49459;BME280;35354;51.296;16.924;2023-06-04T09:32:39;100121.63;;;23.75;38.57
49459;BME280;35354;51.296;16.924;2023-06-04T09:35:13;100144.16;;;23.80;38.36
49459;BME280;35354;51.296;16.924;2023-06-04T09:37:39;100137.03;;;23.61;38.24
49459;BME280;35354;51.296;16.924;2023-06-04T09:40:06;100152.03;;;23.33;38.42
49459;BME280;35354;51.296;16.924;2023-06-04T09:42:45;100150.66;;;23.00;39.02
49459;BME280;35354;51.296;16.924;2023-06-04T09:45:11;100119.72;;;22.89;39.16
49459;BME280;35354;51.296;16.924;2023-06-04T09:47:43;100135.69;;;23.09;39.50
49459;BME280;35354;51.296;16.924;2023-06-04T09:50:11;100150.38;;;22.94;38.59
49459;BME280;35354;51.296;16.924;2023-06-04T09:52:37;100137.44;;;22.60;39.02
49459;BME280;35354;51.296;16.924;2023-06-04T09:55:15;100110.00;;;22.40;39.35
49459;BME280;35354;51.296;16.924;2023-06-04T09:57:48;100097.72;;;22.49;39.64
49459;BME280;35354;51.296;16.924;2023-06-04T10:00:18;100098.72;;;22.57;38.64
49459;BME280;35354;51.296;16.924;2023-06-04T10:02:46;100098.13;;;22.44;38.88
49459;BME280;35354;51.296;16.924;2023-06-04T10:05:13;100100.53;;;22.57;38.89
49459;BME280;35354;51.296;16.924;2023-06-04T10:07:43;100088.63;;;22.41;38.26
49459;BME280;35354;51.296;16.924;2023-06-04T10:10:15;100077.00;;;22.23;38.25
49459;BME280;35354;51.296;16.924;2023-06-04T10:12:41;100120.38;;;22.53;38.13
49459;BME280;35354;51.296;16.924;2023-06-04T10:15:17;100097.84;;;22.37;37.69
49459;BME280;35354;51.296;16.924;2023-06-04T10:17:43;100123.28;;;22.50;37.82
49459;BME280;35354;51.296;16.924;2023-06-04T10:20:08;100112.66;;;22.40;37.56
49459;BME280;35354;51.296;16.924;2023-06-04T10:22:36;100090.19;;;22.04;37.51
49459;BME280;35354;51.296;16.924;2023-06-04T10:25:01;100114.88;;;22.25;37.64
49459;BME280;35354;51.296;16.924;2023-06-04T10:27:31;100121.88;;;22.36;38.12
49459;BME280;35354;51.296;16.924;2023-06-04T10:29:58;100089.69;;;22.20;37.78
49459;BME280;35354;51.296;16.924;2023-06-04T10:32:27;100111.56;;;22.52;37.28
49459;BME280;35354;51.296;16.924;2023-06-04T10:34:53;100096.47;;;22.43;38.17
49459;BME280;35354;51.296;16.924;2023-06-04T10:37:25;100100.91;;;22.33;37.35
49459;BME280;35354;51.296;16.924;2023-06-04T10:39:57;100086.63;;;22.14;37.55
49459;BME280;35354;51.296;16.924;2023-06-04T10:42:23;100092.00;;;22.34;37.87
49459;BME280;35354;51.296;16.924;2023-06-04T10:44:51;100073.41;;;22.44;37.78
49459;BME280;35354;51.296;16.924;2023-06-04T10:47:26;100059.47;;;22.51;37.36
49459;BME280;35354;51.296;16.924;2023-06-04T10:49:53;100112.44;;;22.82;37.00
49459;BME280;35354;51.296;16.924;2023-06-04T10:52:20;100108.38;;;22.78;37.05
49459;BME280;35354;51.296;16.924;2023-06-04T10:54:46;100093.16;;;22.70;36.91
49459;BME280;35354;51.296;16.924;2023-06-04T10:57:18;100106.00;;;22.65;37.24
49459;BME280;35354;51.296;16.924;2023-06-04T10:59:57;100087.09;;;22.39;37.29
49459;BME280;35354;51.296;16.924;2023-06-04T11:02:22;100086.69;;;22.34;37.59
49459;BME280;35354;51.296;16.924;2023-06-04T11:05:05;100081.72;;;22.20;37.61
49459;BME280;35354;51.296;16.924;2023-06-04T11:07:48;100101.16;;;22.20;38.27
49459;BME280;35354;51.296;16.924;2023-06-04T11:10:15;100106.50;;;22.30;38.06
49459;BME280;35354;51.296;16.924;2023-06-04T11:12:52;100102.19;;;22.48;38.35
49459;BME280;35354;51.296;16.924;2023-06-04T11:15:18;100083.47;;;22.50;38.11
49459;BME280;35354;51.296;16.924;2023-06-04T11:17:54;100086.72;;;22.73;37.85
49459;BME280;35354;51.296;16.924;2023-06-04T11:20:22;100082.53;;;22.89;37.86
49459;BME280;35354;51.296;16.924;2023-06-04T11:22:54;100093.31;;;23.17;36.68
49459;BME280;35354;51.296;16.924;2023-06-04T11:25:21;100095.97;;;23.07;37.01
49459;BME280;35354;51.296;16.924;2023-06-04T11:27:48;100094.44;;;23.14;37.33
49459;BME280;35354;51.296;16.924;2023-06-04T11:30:14;100047.44;;;22.86;36.43
49459;BME280;35354;51.296;16.924;2023-06-04T11:32:40;100068.53;;;22.87;36.96
49459;BME280;35354;51.296;16.924;2023-06-04T11:35:06;100085.06;;;22.91;37.17
49459;BME280;35354;51.296;16.924;2023-06-04T11:37:32;100056.09;;;22.49;36.61
49459;BME280;35354;51.296;16.924;2023-06-04T11:39:58;100079.03;;;22.50;36.84
49459;BME280;35354;51.296;16.924;2023-06-04T11:42:28;100068.13;;;22.53;36.79
49459;BME280;35354;51.296;16.924;2023-06-04T11:44:57;100093.28;;;22.69;37.04
49459;BME280;35354;51.296;16.924;2023-06-04T11:47:26;100095.13;;;22.78;36.90
49459;BME280;35354;51.296;16.924;2023-06-04T11:49:55;100070.66;;;22.55;36.66
49459;BME280;35354;51.296;16.924;2023-06-04T11:52:21;100063.63;;;22.44;37.00
49459;BME280;35354;51.296;16.924;2023-06-04T11:54:46;100078.00;;;22.41;37.05
49459;BME280;35354;51.296;16.924;2023-06-04T11:57:12;100067.94;;;22.26;37.06
49459;BME280;35354;51.296;16.924;2023-06-04T11:59:38;100070.16;;;22.21;37.44
49459;BME280;35354;51.296;16.924;2023-06-04T12:02:03;100085.69;;;22.35;37.17
49459;BME280;35354;51.296;16.924;2023-06-04T12:04:30;100054.53;;;22.27;37.47
49459;BME280;35354;51.296;16.924;2023-06-04T12:06:57;100082.38;;;22.52;36.66
49459;BME280;35354;51.296;16.924;2023-06-04T12:09:24;100067.38;;;22.32;36.96
49459;BME280;35354;51.296;16.924;2023-06-04T12:12:06;100053.97;;;22.24;37.38
49459;BME280;35354;51.296;16.924;2023-06-04T12:14:32;100078.31;;;22.38;37.60
49459;BME280;35354;51.296;16.924;2023-06-04T12:17:08;100059.00;;;22.36;37.02
49459;BME280;35354;51.296;16.924;2023-06-04T12:19:46;100073.72;;;22.50;36.52
49459;BME280;35354;51.296;16.924;2023-06-04T12:22:11;100087.84;;;22.60;36.84
49459;BME280;35354;51.296;16.924;2023-06-04T12:24:47;100074.13;;;22.55;38.03
49459;BME280;35354;51.296;16.924;2023-06-04T12:27:14;100094.63;;;22.34;36.74
49459;BME280;35354;51.296;16.924;2023-06-04T12:29:40;100055.91;;;22.22;37.22
49459;BME280;35354;51.296;16.924;2023-06-04T12:32:09;100088.94;;;22.48;37.28
49459;BME280;35354;51.296;16.924;2023-06-04T12:34:39;100087.66;;;22.42;37.07
49459;BME280;35354;51.296;16.924;2023-06-04T12:37:05;100076.66;;;22.47;36.75
49459;BME280;35354;51.296;16.924;2023-06-04T12:39:37;100064.47;;;22.54;37.21
49459;BME280;35354;51.296;16.924;2023-06-04T12:42:04;100080.16;;;22.77;37.08
49459;BME280;35354;51.296;16.924;2023-06-04T12:44:30;100080.56;;;22.82;36.48